Time;durP1;ratioP1;P1;durP2;ratioP2;P2;SDS_P1;SDS_P2;PMS_P1;PMS_P2;Temp;Humidity;BMP_temperature;BMP_pressure;BME280_temperature;BME280_humidity;BME280_pressure;Samples;Min_cycle;Max_cycle;Signal;HPM_P1;HPM_P2
2022/08/24 00:00:41;;;;;;;;;3.25;3.00;;;;;22.40;75.41;101046.00;5092213;28;56222;-82
2022/08/24 00:03:10;;;;;;;;;4.25;4.00;;;;;22.46;75.49;101053.09;5092595;28;45058;-82
2022/08/24 00:05:35;;;;;;;;;2.25;2.25;;;;;22.57;76.06;101066.41;5092606;28;45397;-82
2022/08/24 00:08:01;;;;;;;;;4.00;4.00;;;;;22.57;75.85;101072.66;5092286;28;51714;-81
2022/08/24 00:10:26;;;;;;;;;3.00;3.00;;;;;22.52;75.91;101074.47;5091922;28;45024;-82
2022/08/24 00:12:52;;;;;;;;;3.00;3.00;;;;;22.45;75.93;101067.38;5092789;28;45066;-82
2022/08/24 00:15:17;;;;;;;;;3.25;3.25;;;;;22.42;75.80;101064.75;5091059;28;44984;-82
2022/08/24 00:17:43;;;;;;;;;4.00;3.00;;;;;22.48;76.13;101078.09;5092850;28;45012;-81
2022/08/24 00:20:10;;;;;;;;;3.00;3.00;;;;;22.41;76.43;101062.94;5092717;28;45432;-82
2022/08/24 00:22:36;;;;;;;;;5.00;4.00;;;;;22.45;75.97;101071.84;5092142;28;44859;-82
2022/08/24 00:25:03;;;;;;;;;3.00;3.00;;;;;22.36;76.11;101064.78;5092660;28;44993;-82
2022/08/24 00:27:28;;;;;;;;;4.00;4.00;;;;;22.32;76.46;101055.03;5091756;28;45643;-82
2022/08/24 00:29:54;;;;;;;;;2.00;2.00;;;;;22.26;76.65;101039.00;5073802;28;45064;-81
2022/08/24 00:32:20;;;;;;;;;4.00;4.00;;;;;22.44;76.69;101070.09;5092756;28;45065;-81
2022/08/24 00:34:45;;;;;;;;;4.00;3.00;;;;;22.34;76.06;101056.78;5092585;28;45070;-81
2022/08/24 00:37:10;;;;;;;;;4.00;4.00;;;;;22.30;76.43;101054.13;5091728;28;48856;-81
2022/08/24 00:39:35;;;;;;;;;4.50;4.50;;;;;22.42;76.66;101074.59;5091705;28;45116;-82
2022/08/24 00:42:01;;;;;;;;;4.00;3.50;;;;;22.37;76.64;101071.94;5073033;28;48673;-82
2022/08/24 00:44:26;;;;;;;;;4.00;4.00;;;;;22.35;76.65;101054.97;5092210;28;44922;-82
2022/08/24 00:46:57;;;;;;;;;3.25;3.25;;;;;22.34;76.67;101070.16;5091709;28;48636;-81
2022/08/24 00:49:23;;;;;;;;;3.00;3.00;;;;;22.31;76.74;101080.88;5092183;28;45506;-81
2022/08/24 00:52:03;;;;;;;;;5.00;5.00;;;;;22.20;77.07;101063.16;5091899;28;45051;-82
2022/08/24 00:54:32;;;;;;;;;3.75;3.75;;;;;22.11;76.75;101054.28;5091682;28;44905;-82
2022/08/24 00:57:02;;;;;;;;;5.25;4.25;;;;;22.20;76.78;101063.16;5091767;28;45612;-82
2022/08/24 00:59:36;;;;;;;;;4.25;4.25;;;;;22.14;77.10;101064.97;5091764;28;45566;-82
2022/08/24 01:02:05;;;;;;;;;5.00;5.00;;;;;22.20;77.87;101072.06;5091792;28;45152;-82
2022/08/24 01:04:41;;;;;;;;;6.00;5.00;;;;;22.20;77.51;101068.50;5092108;28;44934;-81
2022/08/24 01:07:06;;;;;;;;;5.00;5.00;;;;;22.07;77.31;101051.63;5089656;28;47125;-82
2022/08/24 01:09:31;;;;;;;;;4.00;4.00;;;;;22.06;77.98;101050.72;5073501;28;45208;-82
2022/08/24 01:11:57;;;;;;;;;4.25;4.25;;;;;22.10;77.76;101060.50;5091829;28;45319;-82
2022/08/24 01:14:23;;;;;;;;;6.75;5.50;;;;;22.14;77.73;101066.78;5092048;28;45008;-82
2022/08/24 01:19:50;;;;;;;;;4.25;4.00;;;;;22.05;77.86;101048.06;5091270;28;45605;-82
2022/08/24 01:22:41;;;;;;;;;6.50;5.50;;;;;21.99;77.67;101040.97;5091411;28;45143;-82
2022/08/24 01:25:07;;;;;;;;;5.00;4.75;;;;;22.05;77.63;101062.31;5091483;28;45111;-82
2022/08/24 01:27:34;;;;;;;;;4.50;4.50;;;;;21.94;77.81;101041.91;5091117;28;45504;-82
2022/08/24 01:30:03;;;;;;;;;4.50;4.50;;;;;22.05;78.32;101065.00;5091863;28;45420;-81
2022/08/24 01:32:29;;;;;;;;;4.00;4.00;;;;;21.94;77.98;101044.59;5091644;28;45005;-82
2022/08/24 01:34:55;;;;;;;;;3.75;3.50;;;;;22.08;77.90;101065.00;5091754;28;45003;-82
2022/08/24 01:37:21;;;;;;;;;4.00;4.00;;;;;22.06;77.99;101072.13;5091050;28;45765;-81
2022/08/24 01:39:49;;;;;;;;;4.00;4.00;;;;;21.83;77.98;101040.19;5091334;28;44953;-81
2022/08/24 01:42:14;;;;;;;;;3.00;3.00;;;;;22.03;78.04;101076.66;5091399;28;45154;-81
2022/08/24 01:44:42;;;;;;;;;5.00;5.00;;;;;21.99;77.86;101080.25;5091185;28;45100;-82
2022/08/24 01:47:10;;;;;;;;;4.00;4.00;;;;;21.92;78.36;101070.44;5091251;28;45903;-82
2022/08/24 01:49:41;;;;;;;;;4.00;4.00;;;;;21.89;78.14;101063.34;5091123;27;45463;-82
2022/08/24 01:52:08;;;;;;;;;4.75;4.75;;;;;21.93;78.49;101073.13;5093705;28;44914;-81
2022/08/24 01:54:34;;;;;;;;;4.75;4.00;;;;;21.82;78.61;101058.91;5094440;28;45182;-81
2022/08/24 01:57:00;;;;;;;;;4.00;3.00;;;;;21.89;78.44;101074.06;5093926;28;45213;-82
2022/08/24 01:59:26;;;;;;;;;4.75;4.75;;;;;21.85;78.37;101066.94;5094319;28;45453;-81
2022/08/24 02:01:57;;;;;;;;;4.00;4.00;;;;;21.77;78.32;101060.75;5094723;28;44965;-82
2022/08/24 02:04:23;;;;;;;;;5.00;4.75;;;;;21.75;78.40;101049.16;5076895;28;45341;-82
2022/08/24 02:06:48;;;;;;;;;6.25;5.50;;;;;21.72;78.85;101051.84;5094345;28;45583;-82
2022/08/24 02:09:14;;;;;;;;;4.25;4.25;;;;;21.83;78.72;101069.63;5094529;28;46131;-82
2022/08/24 02:11:41;;;;;;;;;4.75;4.25;;;;;21.76;78.48;101062.53;5094318;28;45065;-81
2022/08/24 02:14:06;;;;;;;;;4.50;4.50;;;;;21.78;78.89;101071.44;5094507;28;45070;-82
2022/08/24 02:16:31;;;;;;;;;4.00;4.00;;;;;21.78;79.11;101066.09;5094339;28;45170;-82
2022/08/24 02:18:57;;;;;;;;;6.00;6.00;;;;;21.76;78.71;101064.31;5093742;28;55994;-81
2022/08/24 02:21:23;;;;;;;;;4.00;3.50;;;;;21.74;79.17;101063.44;5094005;28;49532;-83
2022/08/24 02:23:49;;;;;;;;;6.25;6.00;;;;;21.72;78.70;101051.84;5094216;28;44952;-82
2022/08/24 02:26:15;;;;;;;;;4.75;4.25;;;;;21.72;78.82;101047.38;5093981;28;45307;-82
2022/08/24 02:28:40;;;;;;;;;5.25;5.25;;;;;21.64;79.18;101046.56;5094517;28;44994;-82
2022/08/24 02:31:07;;;;;;;;;6.50;6.50;;;;;21.76;79.37;101069.66;5094388;28;45214;-81
2022/08/24 02:33:37;;;;;;;;;5.50;5.50;;;;;21.64;79.24;101050.13;5094144;28;44990;-81
2022/08/24 02:36:04;;;;;;;;;5.50;5.25;;;;;21.74;79.35;101075.03;5093740;28;45605;-82
2022/08/24 02:38:30;;;;;;;;;7.00;6.25;;;;;21.61;79.33;101047.47;5093117;28;45195;-82
2022/08/24 02:40:56;;;;;;;;;5.00;5.00;;;;;21.67;79.45;101057.22;5093839;28;45013;-82
2022/08/24 02:43:23;;;;;;;;;5.00;5.00;;;;;21.74;79.30;101068.81;5093697;28;44970;-81
2022/08/24 02:45:49;;;;;;;;;3.25;3.00;;;;;21.63;79.13;101045.69;5093298;28;46472;-82
2022/08/24 02:48:14;;;;;;;;;4.50;4.50;;;;;21.63;79.26;101044.78;5094284;28;45115;-82
2022/08/24 02:50:42;;;;;;;;;4.50;4.00;;;;;21.78;79.19;101058.06;5093859;28;45576;-82
2022/08/24 02:53:09;;;;;;;;;5.00;4.75;;;;;21.78;79.26;101059.88;5093188;28;45230;-82
2022/08/24 02:55:38;;;;;;;;;4.00;4.00;;;;;21.78;78.99;101068.78;5093132;28;45639;-81
2022/08/24 02:58:03;;;;;;;;;2.75;2.75;;;;;21.72;78.94;101057.19;5093301;28;45538;-81
2022/08/24 03:00:29;;;;;;;;;4.00;3.00;;;;;21.57;78.79;101035.00;5092470;28;45072;-80
2022/08/24 03:02:54;;;;;;;;;2.25;2.00;;;;;21.61;79.10;101043.91;5074928;28;45024;-81
2022/08/24 03:05:21;;;;;;;;;5.00;4.25;;;;;21.61;78.97;101043.91;5093663;28;45114;-81
2022/08/24 03:07:46;;;;;;;;;6.00;5.00;;;;;21.72;79.04;101060.75;5093094;28;45482;-81
2022/08/24 03:10:12;;;;;;;;;4.75;4.50;;;;;21.72;79.05;101063.44;5093744;28;45143;-81
2022/08/24 03:12:39;;;;;;;;;4.00;3.00;;;;;21.71;78.91;101066.13;5093691;28;44914;-82
2022/08/24 03:15:07;;;;;;;;;4.75;4.00;;;;;21.69;79.25;101070.63;5093236;28;45554;-81
2022/08/24 03:17:33;;;;;;;;;5.75;5.50;;;;;21.54;78.97;101045.72;5093264;28;44973;-81
2022/08/24 03:20:00;;;;;;;;;4.25;4.25;;;;;21.67;79.26;101072.41;5093524;28;45123;-81
2022/08/24 03:22:26;;;;;;;;;1.00;1.00;;;;;21.66;79.18;101059.91;5092984;28;45027;-81
2022/08/24 03:24:52;;;;;;;;;4.00;4.00;;;;;21.64;79.05;101067.97;5093081;28;45464;-82
2022/08/24 03:27:17;;;;;;;;;4.25;4.00;;;;;21.63;79.21;101056.38;5092566;28;44997;-82
2022/08/24 03:29:42;;;;;;;;;4.25;4.25;;;;;21.54;79.33;101045.72;5093322;28;45268;-81
2022/08/24 03:32:08;;;;;;;;;4.25;4.00;;;;;21.50;79.64;101054.66;5093101;28;45090;-82
2022/08/24 03:34:33;;;;;;;;;4.00;4.00;;;;;21.47;79.24;101043.97;5092957;28;46992;-82
2022/08/24 03:36:59;;;;;;;;;5.00;4.00;;;;;21.52;79.57;101060.88;5092294;28;45060;-82
2022/08/24 03:39:24;;;;;;;;;5.00;5.00;;;;;21.50;79.37;101057.34;5093369;28;44977;-82
2022/08/24 03:41:49;;;;;;;;;5.00;5.00;;;;;21.46;79.29;101062.72;5092835;28;44981;-82
2022/08/24 03:44:15;;;;;;;;;5.00;5.00;;;;;21.41;79.41;101060.06;5092558;28;53860;-82
2022/08/24 03:46:40;;;;;;;;;6.00;5.00;;;;;21.43;79.42;101052.94;5092639;28;45091;-81
2022/08/24 03:49:08;;;;;;;;;5.25;5.25;;;;;21.41;79.84;101060.06;5093582;28;45009;-82
2022/08/24 03:51:35;;;;;;;;;5.50;5.50;;;;;21.33;79.95;101057.44;5092430;28;45214;-80
2022/08/24 03:54:01;;;;;;;;;5.00;5.00;;;;;21.25;79.84;101037.81;5092854;28;45362;-82
2022/08/24 03:56:27;;;;;;;;;6.25;5.50;;;;;21.23;79.72;101036.94;5092432;28;45206;-80
2022/08/24 03:58:53;;;;;;;;;5.00;4.00;;;;;21.33;80.04;101061.91;5093028;28;44982;-82
2022/08/24 04:01:19;;;;;;;;;4.00;4.00;;;;;21.17;79.95;101031.59;5092674;28;44957;-82
2022/08/24 04:03:47;;;;;;;;;4.50;4.50;;;;;21.26;80.15;101047.59;5091390;28;46194;-82
2022/08/24 04:06:14;;;;;;;;;5.25;4.50;;;;;21.23;80.13;101038.69;5092692;28;45075;-81
2022/08/24 04:08:41;;;;;;;;;3.50;3.00;;;;;21.33;80.18;101053.88;5092264;28;44989;-81
2022/08/24 04:11:21;;;;;;;;;4.25;4.00;;;;;21.35;80.05;101057.41;5092528;28;45125;-80
2022/08/24 04:13:48;;;;;;;;;4.50;4.25;;;;;21.33;80.13;101045.84;5073393;28;46807;-81
2022/08/24 04:16:16;;;;;;;;;6.25;5.50;;;;;21.42;79.65;101050.25;5092299;28;45588;-82
2022/08/24 04:18:42;;;;;;;;;4.25;4.25;;;;;21.32;79.83;101034.25;5092779;28;44929;-82
2022/08/24 04:21:29;;;;;;;;;3.50;3.50;;;;;21.26;79.52;101028.91;5092377;28;45229;-82
2022/08/24 04:23:56;;;;;;;;;3.25;3.25;;;;;21.37;79.97;101058.28;5092328;28;45056;-80
2022/08/24 04:26:24;;;;;;;;;3.50;3.25;;;;;21.26;79.72;101047.59;5091421;28;45403;-82
2022/08/24 04:28:50;;;;;;;;;4.00;4.00;;;;;21.27;79.82;101057.41;5091864;28;45110;-82
2022/08/24 04:31:17;;;;;;;;;6.50;5.00;;;;;21.24;80.07;101051.22;5092220;28;44929;-82
2022/08/24 04:33:43;;;;;;;;;5.00;4.75;;;;;21.22;79.91;101058.31;5092174;28;45040;-82
2022/08/24 04:36:10;;;;;;;;;4.00;4.00;;;;;21.12;80.17;101047.66;5092147;28;45550;-81
2022/08/24 04:38:36;;;;;;;;;6.00;5.00;;;;;21.12;80.33;101050.34;5092012;28;44929;-82
2022/08/24 04:41:11;;;;;;;;;6.75;6.00;;;;;21.09;80.39;101054.81;5091817;28;45195;-82
2022/08/24 04:43:36;;;;;;;;;6.00;6.00;;;;;21.02;80.08;101037.00;5091974;28;45411;-82
2022/08/24 04:46:06;;;;;;;;;6.00;5.50;;;;;21.08;80.23;101055.69;5090658;28;45108;-81
2022/08/24 04:48:33;;;;;;;;;5.75;5.75;;;;;21.00;80.52;101046.84;5092002;28;45249;-82
2022/08/24 04:51:04;;;;;;;;;6.75;6.00;;;;;21.02;80.47;101039.69;5092166;28;45068;-81
2022/08/24 04:53:30;;;;;;;;;5.25;4.75;;;;;21.01;80.84;101045.94;5091373;28;45152;-82
2022/08/24 04:55:56;;;;;;;;;5.00;5.00;;;;;20.95;80.30;101045.97;5091005;28;45105;-82
2022/08/24 04:58:22;;;;;;;;;3.25;3.25;;;;;20.91;80.72;101045.06;5092037;28;45130;-81
2022/08/24 05:00:47;;;;;;;;;5.00;5.00;;;;;20.94;80.74;101042.41;5091553;28;45914;-82
2022/08/24 05:03:13;;;;;;;;;5.25;5.25;;;;;20.91;80.61;101038.84;5091379;28;45013;-82
2022/08/24 05:05:47;;;;;;;;;5.00;4.75;;;;;20.90;80.69;101042.41;5091359;28;45298;-82
2022/08/24 05:08:13;;;;;;;;;5.75;5.75;;;;;20.92;80.91;101041.50;5091375;28;45175;-81
2022/08/24 05:10:42;;;;;;;;;5.00;4.00;;;;;20.96;80.62;101045.06;5090888;28;45107;-81
2022/08/24 05:13:08;;;;;;;;;5.75;5.75;;;;;20.96;80.96;101045.94;5091382;28;45151;-82
2022/08/24 05:15:34;;;;;;;;;7.25;6.50;;;;;20.94;80.90;101046.88;5090167;28;45060;-82
2022/08/24 05:18:01;;;;;;;;;4.00;4.00;;;;;20.96;81.09;101053.09;5092065;28;44993;-81
2022/08/24 05:20:26;;;;;;;;;5.25;4.75;;;;;20.92;81.11;101049.50;5090970;28;45033;-82
2022/08/24 05:22:52;;;;;;;;;6.00;4.25;;;;;20.96;81.19;101056.63;5091594;28;45390;-80
2022/08/24 05:25:18;;;;;;;;;4.50;4.50;;;;;20.98;80.96;101060.19;5092430;28;45366;-81
2022/08/24 05:27:43;;;;;;;;;5.00;5.00;;;;;20.96;81.03;101061.97;5094950;28;44996;-82
2022/08/24 05:30:10;;;;;;;;;6.00;6.00;;;;;21.01;81.16;101064.66;5094763;28;47844;-81
2022/08/24 05:32:36;;;;;;;;;5.00;4.75;;;;;21.03;80.92;101068.19;5094676;28;45238;-82
2022/08/24 05:35:03;;;;;;;;;5.00;5.00;;;;;21.02;81.06;101061.94;5094808;28;45389;-82
2022/08/24 05:37:29;;;;;;;;;5.50;5.50;;;;;20.98;80.71;101054.84;5094426;28;45141;-81
2022/08/24 05:39:54;;;;;;;;;5.25;4.50;;;;;21.02;80.87;101053.94;5094876;28;45335;-81
2022/08/24 05:42:20;;;;;;;;;6.33;6.33;;;;;21.08;81.25;101069.97;5094087;28;57305;-82
2022/08/24 05:44:45;;;;;;;;;6.00;6.00;;;;;20.95;80.93;101041.50;5094494;28;47223;-82
2022/08/24 05:47:11;;;;;;;;;6.00;6.00;;;;;20.93;81.30;101039.72;5094940;28;45155;-81
2022/08/24 05:49:36;;;;;;;;;6.00;6.00;;;;;21.12;81.42;101073.50;5094911;28;45131;-81
2022/08/24 05:52:02;;;;;;;;;4.25;4.25;;;;;21.00;81.40;101044.16;5094233;28;46057;-81
2022/08/24 05:54:27;;;;;;;;;7.25;6.50;;;;;21.12;81.24;101063.69;5094315;28;45130;-82
2022/08/24 05:56:53;;;;;;;;;5.25;5.25;;;;;21.05;81.67;101045.03;5094459;28;45136;-82
2022/08/24 05:59:21;;;;;;;;;7.75;6.00;;;;;21.20;81.45;101069.03;5094666;28;44962;-81
2022/08/24 06:01:46;;;;;;;;;6.00;6.00;;;;;21.28;81.37;101079.69;5094410;28;45145;-80
2022/08/24 06:04:12;;;;;;;;;6.00;6.00;;;;;21.13;81.58;101040.53;5094548;28;45080;-81
2022/08/24 06:06:38;;;;;;;;;6.25;5.50;;;;;21.27;81.47;101057.41;5093797;28;45093;-82
2022/08/24 06:09:03;;;;;;;;;8.25;7.25;;;;;21.35;81.59;101066.31;5076355;28;45190;-81
2022/08/24 06:11:38;;;;;;;;;7.00;6.00;;;;;21.45;81.57;101077.88;5093740;28;45547;-82
2022/08/24 06:14:08;;;;;;;;;9.25;8.00;;;;;21.47;81.24;101065.38;5094365;28;45184;-82
2022/08/24 06:16:35;;;;;;;;;6.50;6.50;;;;;21.55;81.18;101074.25;5094287;28;45006;-82
2022/08/24 06:19:00;;;;;;;;;7.00;7.00;;;;;21.53;81.47;101072.50;5092420;28;45155;-82
2022/08/24 06:21:27;;;;;;;;;6.00;6.00;;;;;21.67;81.30;101083.09;5093414;28;45170;-81
2022/08/24 06:23:52;;;;;;;;;7.75;7.00;;;;;21.71;81.11;101080.41;5094412;28;45097;-82
2022/08/24 06:29:06;;;;;;;;;7.25;7.00;;;;;21.78;81.39;101066.09;5093931;28;45003;-82
2022/08/24 06:31:35;;;;;;;;;7.50;7.50;;;;;21.90;81.08;101075.81;5093720;28;45226;-82
2022/08/24 06:34:01;;;;;;;;;7.25;7.00;;;;;21.96;81.15;101081.13;5093692;28;45421;-81
2022/08/24 06:36:26;;;;;;;;;7.75;7.75;;;;;21.97;81.23;101071.31;5093081;28;45183;-82
2022/08/24 06:38:51;;;;;;;;;8.00;8.00;;;;;22.01;80.59;101073.94;5093857;28;46616;-85
2022/08/24 06:41:17;;;;;;;;;7.00;7.00;;;;;22.02;81.21;101065.06;5093629;28;45456;-85
2022/08/24 06:43:43;;;;;;;;;8.00;7.75;;;;;22.15;80.81;101072.09;5094273;28;45070;-81
2022/08/24 06:46:08;;;;;;;;;7.75;6.50;;;;;22.25;80.61;101083.63;5094281;28;45083;-83
2022/08/24 06:48:33;;;;;;;;;9.00;7.75;;;;;22.25;80.15;101061.31;5094040;28;45000;-82
2022/08/24 06:50:59;;;;;;;;;7.25;7.25;;;;;22.22;79.92;101056.00;5093672;28;45941;-82
2022/08/24 06:53:24;;;;;;;;;7.00;7.00;;;;;22.40;79.74;101066.53;5092317;28;45131;-82
2022/08/24 06:55:56;;;;;;;;;6.00;6.00;;;;;22.52;79.74;101074.47;5093038;28;45037;-82
2022/08/24 06:58:22;;;;;;;;;8.00;7.50;;;;;22.57;79.00;101075.31;5093890;28;45086;-82
2022/08/24 07:00:48;;;;;;;;;7.00;6.00;;;;;22.56;79.51;101062.84;5093252;28;45810;-82
2022/08/24 07:03:15;;;;;;;;;7.00;6.50;;;;;22.60;79.11;101059.19;5092399;28;45499;-82
2022/08/24 07:05:49;;;;;;;;;6.25;6.25;;;;;22.73;78.51;101064.44;5093907;28;45005;-82
2022/08/24 07:08:14;;;;;;;;;7.00;6.50;;;;;22.66;78.47;101047.56;5093106;28;45161;-82
2022/08/24 07:10:39;;;;;;;;;5.00;5.00;;;;;22.74;78.07;101047.47;5093387;28;45438;-82
2022/08/24 07:13:05;;;;;;;;;6.75;6.75;;;;;22.87;77.72;101066.09;5093370;28;44942;-82
2022/08/24 07:15:30;;;;;;;;;8.00;8.00;;;;;22.92;77.54;101060.72;5093391;28;45587;-82
2022/08/24 07:17:56;;;;;;;;;7.75;7.75;;;;;22.93;77.73;101046.41;5092793;28;47554;-82
2022/08/24 07:20:23;;;;;;;;;7.25;6.00;;;;;22.98;76.99;101052.59;5092814;28;45617;-82
2022/08/24 07:22:49;;;;;;;;;8.00;7.25;;;;;23.06;77.56;101064.13;5092977;28;45404;-82
2022/08/24 07:25:14;;;;;;;;;7.00;6.00;;;;;23.06;78.11;101057.88;5092859;28;44969;-82
2022/08/24 07:27:39;;;;;;;;;7.25;7.25;;;;;23.20;76.96;101071.09;5074036;28;45542;-83
2022/08/24 07:30:06;;;;;;;;;5.25;5.25;;;;;23.24;77.53;101078.19;5093050;28;45536;-82
2022/08/24 07:32:32;;;;;;;;;6.25;6.25;;;;;23.27;76.85;101088.91;5092911;28;45451;-82
2022/08/24 07:34:58;;;;;;;;;6.00;5.50;;;;;23.29;76.92;101085.28;5093273;28;44933;-82
2022/08/24 07:37:23;;;;;;;;;4.00;4.00;;;;;23.31;76.95;101080.81;5092689;28;45053;-82
2022/08/24 07:39:48;;;;;;;;;5.50;5.00;;;;;23.33;76.35;101087.03;5093136;28;45609;-81
2022/08/24 07:42:14;;;;;;;;;4.00;4.00;;;;;23.38;76.78;101081.59;5073826;28;44954;-82
2022/08/24 07:44:39;;;;;;;;;5.00;5.00;;;;;23.41;76.76;101084.25;5091562;28;45178;-82
2022/08/24 07:47:04;;;;;;;;;4.00;4.00;;;;;23.44;76.21;101085.09;5093187;28;44899;-82
2022/08/24 07:49:31;;;;;;;;;4.25;4.25;;;;;23.44;76.04;101081.50;5092776;27;45688;-82
2022/08/24 07:51:56;;;;;;;;;5.00;4.25;;;;;23.47;76.22;101083.28;5092583;28;45128;-82
2022/08/24 07:54:22;;;;;;;;;11.00;11.00;;;;;23.53;76.06;101085.88;5093191;28;45090;-82
2022/08/24 07:56:48;;;;;;;;;8.25;7.25;;;;;23.62;75.40;101097.38;5092393;28;45196;-82
2022/08/24 07:59:14;;;;;;;;;9.00;8.00;;;;;23.67;75.22;101102.72;5092738;28;46658;-81
2022/08/24 08:01:41;;;;;;;;;3.50;3.50;;;;;23.65;74.92;101088.44;5092563;28;45033;-81
2022/08/24 08:04:06;;;;;;;;;6.25;5.00;;;;;23.70;74.45;101093.75;5093109;28;45048;-82
2022/08/24 08:06:32;;;;;;;;;4.00;4.00;;;;;23.71;74.23;101090.16;5092485;28;44956;-82
2022/08/24 08:08:57;;;;;;;;;6.00;5.00;;;;;23.81;74.19;101100.75;5092840;28;45151;-81
2022/08/24 08:11:23;;;;;;;;;2.50;2.50;;;;;23.87;72.15;101103.31;5092301;28;44985;-82
2022/08/24 08:13:48;;;;;;;;;3.00;3.00;;;;;23.97;72.40;101111.25;5092929;28;45003;-82
2022/08/24 08:16:14;;;;;;;;;3.75;3.00;;;;;24.01;71.54;101105.81;5092105;28;45094;-82
2022/08/24 08:18:40;;;;;;;;;5.50;4.50;;;;;24.01;72.48;101105.81;5092045;28;45941;-82
2022/08/24 08:24:13;;;;;;;;;3.00;3.00;;;;;24.09;71.44;101111.97;5092667;28;45062;-82
2022/08/24 08:26:36;;;;;;;;;4.75;4.00;;;;;24.10;72.30;101103.00;5091550;28;45127;-82
2022/08/24 08:29:02;;;;;;;;;4.00;4.00;;;;;24.22;70.78;101111.75;5091782;28;46487;-82
2022/08/24 08:31:27;;;;;;;;;3.00;3.00;;;;;24.06;71.86;101087.84;5092149;28;45097;-81
2022/08/24 08:33:52;;;;;;;;;4.00;3.75;;;;;24.18;70.51;101103.75;5092291;28;45007;-82
2022/08/24 08:36:20;;;;;;;;;3.00;3.00;;;;;24.29;70.75;101116.13;5091926;28;47219;-82
2022/08/24 08:38:45;;;;;;;;;3.00;3.00;;;;;24.31;71.54;101109.81;5091870;28;45301;-82
2022/08/24 08:41:41;;;;;;;;;4.50;4.00;;;;;24.24;71.43;101094.72;5091818;28;45063;-82
2022/08/24 08:44:14;;;;;;;;;2.75;2.75;;;;;24.26;70.31;101090.19;5092458;28;45037;-81
2022/08/24 08:47:13;;;;;;;;;2.25;2.00;;;;;24.39;70.46;101094.50;5073976;28;45125;-82
2022/08/24 08:50:00;;;;;;;;;2.25;2.25;;;;;24.51;69.36;101105.94;5091901;28;45736;-81
2022/08/24 08:52:47;;;;;;;;;1.25;1.25;;;;;24.57;69.99;101106.72;5092016;28;45559;-82
2022/08/24 08:55:31;;;;;;;;;3.00;2.75;;;;;24.62;69.83;101102.16;5091215;28;45798;-82
2022/08/24 08:58:29;;;;;;;;;2.00;2.00;;;;;24.64;68.87;101100.34;5092046;28;44920;-82
2022/08/24 09:01:09;;;;;;;;;3.00;3.00;;;;;24.56;69.63;101069.13;5091180;27;45799;-82
2022/08/24 09:03:47;;;;;;;;;3.00;2.50;;;;;24.78;68.82;101101.88;5091713;28;45060;-82
2022/08/24 09:06:34;;;;;;;;;3.25;3.25;;;;;24.83;69.21;101102.69;5091886;28;45117;-82
2022/08/24 09:09:20;;;;;;;;;3.00;3.00;;;;;24.89;68.84;101098.09;5091646;28;44990;-82
2022/08/24 09:11:59;;;;;;;;;2.75;2.50;;;;;24.93;67.42;101099.81;5091036;28;45808;-82
2022/08/24 09:14:42;;;;;;;;;2.00;2.00;;;;;24.98;67.54;101096.16;5091865;28;44994;-82
2022/08/24 09:17:10;;;;;;;;;2.00;1.00;;;;;25.05;67.07;101105.84;5091800;28;44902;-82
2022/08/24 09:20:13;;;;;;;;;1.00;1.00;;;;;25.15;66.09;101107.47;5091516;28;45106;-83
2022/08/24 09:22:42;;;;;;;;;3.25;3.00;;;;;25.17;65.47;101090.41;5091446;28;45987;-82
2022/08/24 09:25:45;;;;;;;;;1.00;1.00;;;;;25.29;65.69;101101.84;5090883;28;45525;-82
2022/08/24 09:28:32;;;;;;;;;2.50;2.00;;;;;25.35;64.71;101099.88;5059626;28;45195;-83
2022/08/24 09:31:25;;;;;;;;;2.75;2.75;;;;;25.42;64.96;101104.25;5091668;28;45107;-82
2022/08/24 09:34:28;;;;;;;;;2.00;2.00;;;;;25.46;64.59;101103.22;5091544;28;45771;-82
2022/08/24 09:37:17;;;;;;;;;3.25;2.00;;;;;25.45;64.04;101097.88;5088587;27;45043;-82
2022/08/24 09:40:12;;;;;;;;;2.00;2.00;;;;;25.52;63.90;101110.31;5091443;28;45139;-82
2022/08/24 09:43:04;;;;;;;;;1.25;1.00;;;;;25.42;63.59;101081.81;5072934;28;45091;-82
2022/08/24 09:45:55;;;;;;;;;1.00;1.00;;;;;25.60;63.74;101108.31;5090688;28;45478;-82
2022/08/24 09:48:36;;;;;;;;;2.00;2.00;;;;;25.60;64.09;101094.88;5073156;28;44922;-82
2022/08/24 09:51:16;;;;;;;;;2.00;1.00;;;;;25.69;63.02;101108.13;5091430;28;45004;-82
2022/08/24 09:54:18;;;;;;;;;1.25;1.00;;;;;25.78;63.07;101111.59;5091470;28;45142;-81
2022/08/24 09:56:49;;;;;;;;;2.25;2.00;;;;;25.89;62.81;101109.53;5090972;28;45733;-81
2022/08/24 09:59:36;;;;;;;;;1.00;1.00;;;;;25.95;63.03;101106.69;5091227;28;45376;-82
2022/08/24 10:02:04;;;;;;;;;1.00;1.00;;;;;25.99;61.71;101101.19;5072655;28;45017;-82
2022/08/24 10:04:49;;;;;;;;;1.00;1.00;;;;;26.03;61.96;101093.94;5091280;28;44850;-82
2022/08/24 10:07:50;;;;;;;;;1.00;1.00;;;;;25.97;61.54;101080.63;5090850;28;45113;-82
2022/08/24 10:10:18;;;;;;;;;2.00;1.75;;;;;26.09;60.95;101093.78;5090070;28;45160;-82
2022/08/24 10:13:25;;;;;;;;;1.00;1.00;;;;;26.16;60.97;101084.66;5093313;27;45111;-82
2022/08/24 10:15:59;;;;;;;;;2.00;1.00;;;;;26.24;61.76;101088.00;5094674;28;45226;-82
2022/08/24 10:18:50;;;;;;;;;0.25;0.25;;;;;26.36;60.43;101080.56;5094666;28;45975;-83
2022/08/24 10:21:33;;;;;;;;;1.50;1.50;;;;;26.48;60.35;101080.28;5075681;28;45527;-83
2022/08/24 10:24:12;;;;;;;;;1.00;1.00;;;;;26.58;59.25;101076.41;5094180;28;45167;-82
2022/08/24 10:26:49;;;;;;;;;2.00;2.00;;;;;26.57;59.08;101080.03;5093881;28;45067;-82
2022/08/24 10:29:39;;;;;;;;;1.00;1.00;;;;;26.55;59.95;101079.22;5094215;28;45749;-82
2022/08/24 10:32:34;;;;;;;;;1.75;1.75;;;;;26.44;59.52;101052.50;5094039;28;45411;-82
2022/08/24 10:35:12;;;;;;;;;0.25;0.25;;;;;26.65;59.68;101066.34;5093862;28;45004;-81
2022/08/24 10:41:31;;;;;;;;;2.00;2.00;;;;;26.70;58.56;101040.16;5072746;28;45032;-82
2022/08/24 10:44:08;;;;;;;;;2.75;2.00;;;;;26.91;58.53;101065.66;5094133;28;45387;-82
2022/08/24 10:46:48;;;;;;;;;1.75;1.00;;;;;26.97;58.18;101068.16;5094005;28;45047;-81
2022/08/24 10:49:34;;;;;;;;;1.50;1.50;;;;;27.06;57.31;101059.81;5094330;28;45012;-82
2022/08/24 10:52:28;;;;;;;;;1.75;1.75;;;;;27.06;57.73;101040.94;5093686;28;46019;-82
2022/08/24 10:54:54;;;;;;;;;1.25;1.00;;;;;27.24;57.62;101045.84;5093382;28;45095;-82
2022/08/24 10:57:45;;;;;;;;;2.00;2.00;;;;;27.35;56.70;101048.19;5093250;28;45020;-83
2022/08/24 11:00:14;;;;;;;;;2.00;2.00;;;;;27.53;56.41;101052.13;5093675;28;44884;-82
2022/08/24 11:02:44;;;;;;;;;2.00;2.00;;;;;27.65;54.95;101059.00;5093493;28;45218;-83
2022/08/24 11:05:28;;;;;;;;;1.00;1.00;;;;;27.71;55.09;101046.22;5093696;28;45152;-82
2022/08/24 11:08:03;;;;;;;;;1.75;1.75;;;;;27.63;55.38;101028.44;5093753;28;44910;-82
2022/08/24 11:10:34;;;;;;;;;1.00;1.00;;;;;27.76;55.89;101041.53;5093290;28;45091;-81
2022/08/24 11:13:22;;;;;;;;;1.00;1.00;;;;;27.83;55.26;101042.22;5093949;28;45646;-82
2022/08/24 11:15:55;;;;;;;;;2.00;2.00;;;;;27.75;54.23;101014.59;5093121;28;45032;-82
2022/08/24 11:18:21;;;;;;;;;2.00;2.00;;;;;27.87;54.43;101029.50;5093466;28;45020;-82
2022/08/24 11:20:50;;;;;;;;;0.00;0.00;;;;;27.89;54.32;101027.66;5074810;28;45240;-82
2022/08/24 11:23:20;;;;;;;;;1.00;1.00;;;;;27.94;54.26;101025.69;5074230;28;46453;-82
2022/08/24 11:26:05;;;;;;;;;1.50;1.50;;;;;28.03;54.12;101019.97;5092584;28;45123;-82
2022/08/24 11:28:32;;;;;;;;;1.50;1.50;;;;;28.12;53.78;101021.47;5093726;28;45080;-82
2022/08/24 11:30:59;;;;;;;;;1.00;1.00;;;;;28.18;53.86;101022.16;5093346;28;45226;-82
2022/08/24 11:33:32;;;;;;;;;1.00;1.00;;;;;28.12;53.36;100999.84;5093191;28;45270;-83
2022/08/24 11:35:59;;;;;;;;;0.50;0.50;;;;;28.24;52.95;101021.94;5093176;28;45482;-82
2022/08/24 11:38:30;;;;;;;;;1.00;1.00;;;;;28.12;52.97;100998.03;5092690;28;45051;-81
2022/08/24 11:41:07;;;;;;;;;0.50;0.25;;;;;28.13;53.46;100986.31;5092877;28;45056;-82
2022/08/24 11:43:52;;;;;;;;;1.00;1.00;;;;;28.43;52.35;101013.25;5093517;28;45421;-83
2022/08/24 11:46:20;;;;;;;;;1.00;1.00;;;;;28.54;52.59;101008.34;5093195;28;45313;-82
2022/08/24 11:49:21;;;;;;;;;1.00;1.00;;;;;28.62;51.63;100990.00;5092957;28;45054;-82
2022/08/24 11:52:07;;;;;;;;;1.00;1.00;;;;;28.87;52.47;100999.94;5092979;28;45104;-83